Time;durP1;ratioP1;P1;durP2;ratioP2;P2;SDS_P1;SDS_P2;PMS_P1;PMS_P2;Temp;Humidity;BMP_temperature;BMP_pressure;BME280_temperature;BME280_humidity;BME280_pressure;Samples;Min_cycle;Max_cycle;Signal;HPM_P1;HPM_P2
2022/06/04 00:00:28;;;;;;;;;;;;;;;17.76;50.81;99427.76;1723677;83;20180;-47
2022/06/04 00:02:54;;;;;;;;;;;;;;;17.74;50.15;99424.88;1723600;83;20229;-55
2022/06/04 00:05:24;;;;;;;;;;;;;;;17.77;50.21;99429.92;1723602;83;20461;-45
2022/06/04 00:07:52;;;;;;;;;;;;;;;17.80;50.37;99418.55;1723664;83;20160;-51
2022/06/04 00:15:52;;;;;;;;;;;;;;;17.78;50.62;99418.33;1723741;82;20218;-47
2022/06/04 00:18:19;;;;;;;;;;;;;;;17.78;50.68;99408.52;1723648;83;20478;-47
2022/06/04 00:20:45;;;;;;;;;;;;;;;17.76;50.81;99405.15;1723637;83;20140;-45
2022/06/04 00:23:12;;;;;;;;;;;;;;;17.73;50.80;99397.42;1723684;83;20444;-51
2022/06/04 00:25:40;;;;;;;;;;;;;;;17.71;51.36;99402.02;1723711;83;20437;-50
2022/06/04 00:28:08;;;;;;;;;;;;;;;17.70;50.88;99398.16;1723695;83;20160;-51
2022/06/04 00:30:33;;;;;;;;;;;;;;;17.67;50.86;99393.12;1723614;83;20441;-45
2022/06/04 00:32:59;;;;;;;;;;;;;;;17.61;51.60;99394.47;1723661;83;20136;-55
2022/06/04 00:35:25;;;;;;;;;;;;;;;17.59;51.33;99393.73;1723684;83;20465;-47
2022/06/04 00:37:51;;;;;;;;;;;;;;;17.59;52.57;99391.06;1712252;83;20163;-51
2022/06/04 00:40:26;;;;;;;;;;;;;;;17.56;51.54;99385.53;1723611;83;20140;-52
2022/06/04 00:42:56;;;;;;;;;;;;;;;17.57;51.28;99387.70;1699596;83;20124;-50
2022/06/04 00:45:38;;;;;;;;;;;;;;;17.56;51.49;99385.53;1723600;83;20148;-45
2022/06/04 00:48:08;;;;;;;;;;;;;;;17.57;51.22;99387.23;1723617;83;20172;-47
2022/06/04 00:50:39;;;;;;;;;;;;;;;17.56;51.51;99392.18;1723633;83;20140;-46
2022/06/04 00:53:08;;;;;;;;;;;;;;;17.58;51.70;99397.38;1723698;83;20140;-50
2022/06/04 00:56:00;;;;;;;;;;;;;;;17.56;52.64;99399.32;1723623;83;20571;-50
2022/06/04 00:58:38;;;;;;;;;;;;;;;17.53;51.88;99392.42;1723420;83;20140;-46
2022/06/04 01:01:16;;;;;;;;;;;;;;;17.52;52.35;99377.46;1723613;83;20194;-44
2022/06/04 01:04:00;;;;;;;;;;;;;;;17.53;51.56;99372.98;1723597;82;20124;-49
2022/06/04 01:06:32;;;;;;;;;;;;;;;17.50;52.08;99367.44;1712018;83;20140;-46
2022/06/04 01:09:07;;;;;;;;;;;;;;;17.49;51.70;99376.37;1723362;83;20140;-53
2022/06/04 01:11:37;;;;;;;;;;;;;;;17.45;51.69;99364.31;1727477;83;20448;-47
2022/06/04 01:14:18;;;;;;;;;;;;;;;17.45;51.50;99348.37;1723638;82;20484;-48
2022/06/04 01:16:50;;;;;;;;;;;;;;;17.43;51.33;99349.81;1722911;83;20425;-47
2022/06/04 01:19:47;;;;;;;;;;;;;;;17.41;51.84;99357.58;1723491;83;20417;-44
2022/06/04 01:22:43;;;;;;;;;;;;;;;17.42;51.63;99356.59;1723608;83;20225;-48
2022/06/04 01:25:18;;;;;;;;;;;;;;;17.42;51.67;99352.59;1723036;83;20132;-50
2022/06/04 01:27:46;;;;;;;;;;;;;;;17.42;51.18;99356.09;1723255;82;20188;-47
2022/06/04 01:30:24;;;;;;;;;;;;;;;17.43;51.44;99349.81;1723590;83;20219;-42
2022/06/04 01:32:53;;;;;;;;;;;;;;;17.41;51.93;99353.59;1723542;83;20152;-43
2022/06/04 01:35:25;;;;;;;;;;;;;;;17.42;51.24;99353.92;1723670;83;20132;-48
2022/06/04 01:38:07;;;;;;;;;;;;;;;17.39;51.23;99352.84;1723546;83;20156;-47
2022/06/04 01:43:22;;;;;;;;;;;;;;;17.38;51.39;99341.38;1723629;83;20171;-50
2022/06/04 01:45:49;;;;;;;;;;;;;;;17.36;51.46;99340.66;1723564;83;20132;-50
2022/06/04 01:48:16;;;;;;;;;;;;;;;17.32;52.39;99337.04;1723567;83;20587;-48
2022/06/04 01:50:48;;;;;;;;;;;;;;;17.34;51.07;99333.30;1723604;83;20647;-52
2022/06/04 01:53:16;;;;;;;;;;;;;;;17.35;50.85;99336.30;1723646;83;20421;-52
2022/06/04 01:55:51;;;;;;;;;;;;;;;17.35;51.47;99330.16;1723583;83;20140;-48
2022/06/04 01:58:19;;;;;;;;;;;;;;;17.33;51.15;99318.80;1723612;83;20159;-44
2022/06/04 02:00:49;;;;;;;;;;;;;;;17.34;51.99;99327.16;1723653;83;20207;-50
2022/06/04 02:03:24;;;;;;;;;;;;;;;17.33;50.73;99315.66;1723516;82;20156;-47
2022/06/04 02:05:52;;;;;;;;;;;;;;;17.34;51.55;99316.52;1723263;83;20128;-54
2022/06/04 02:08:31;;;;;;;;;;;;;;;17.35;51.56;99315.53;1723286;83;20437;-48
2022/06/04 02:11:03;;;;;;;;;;;;;;;17.34;51.19;99321.84;1723603;83;20461;-50
2022/06/04 02:13:30;;;;;;;;;;;;;;;17.33;51.45;99316.15;1723245;83;20131;-47
2022/06/04 02:16:03;;;;;;;;;;;;;;;17.36;52.00;99313.25;1723622;83;20159;-49
2022/06/04 02:18:29;;;;;;;;;;;;;;;17.38;51.67;99310.80;1722418;83;20132;-50
2022/06/04 02:20:54;;;;;;;;;;;;;;;17.40;51.66;99301.38;1723588;83;20140;-43
2022/06/04 02:23:20;;;;;;;;;;;;;;;17.40;51.79;99298.23;1723612;83;20132;-42
2022/06/04 02:25:46;;;;;;;;;;;;;;;17.42;51.45;99295.44;1723642;83;20441;-53
2022/06/04 02:28:11;;;;;;;;;;;;;;;17.45;51.00;99300.52;1723642;83;20425;-57
2022/06/04 02:30:53;;;;;;;;;;;;;;;17.45;51.88;99297.86;1723614;83;20144;-47
2022/06/04 02:33:34;;;;;;;;;;;;;;;17.48;51.42;99296.25;1723332;83;20131;-50
2022/06/04 02:36:11;;;;;;;;;;;;;;;17.48;52.12;99290.92;1723607;82;20132;-49
2022/06/04 02:38:50;;;;;;;;;;;;;;;17.53;51.34;99285.23;1723441;83;20625;-51
2022/06/04 02:41:24;;;;;;;;;;;;;;;17.55;51.29;99288.11;1717676;80;20187;-56
2022/06/04 02:43:56;;;;;;;;;;;;;;;17.55;52.06;99284.13;1719885;82;20163;-50
2022/06/04 02:46:26;;;;;;;;;;;;;;;17.59;51.49;99282.91;1680692;82;20163;-55
2022/06/04 02:49:09;;;;;;;;;;;;;;;17.60;51.91;99283.25;1722503;82;23224;-51
2022/06/04 02:51:41;;;;;;;;;;;;;;;17.61;52.16;99282.30;1722964;82;20139;-46
2022/06/04 02:54:10;;;;;;;;;;;;;;;17.63;52.80;99291.48;1721466;82;20140;-45
2022/06/04 02:56:38;;;;;;;;;;;;;;;17.65;52.27;99291.69;1720462;83;20140;-44
2022/06/04 02:59:06;;;;;;;;;;;;;;;17.64;52.10;99280.72;1723128;82;20132;-49
2022/06/04 03:01:35;;;;;;;;;;;;;;;17.68;51.64;99286.59;1722799;81;20461;-48
2022/06/04 03:04:01;;;;;;;;;;;;;;;17.69;52.13;99280.80;1719526;82;20461;-50
2022/06/04 03:06:32;;;;;;;;;;;;;;;17.71;52.26;99288.16;1704284;83;20444;-48
2022/06/04 03:08:59;;;;;;;;;;;;;;;17.71;52.86;99288.99;1719326;82;20223;-46
2022/06/04 03:11:26;;;;;;;;;;;;;;;17.73;52.78;99287.53;1725090;83;20169;-46
2022/06/04 03:13:52;;;;;;;;;;;;;;;17.74;51.65;99282.59;1719601;83;20219;-48
2022/06/04 03:16:18;;;;;;;;;;;;;;;17.75;51.66;99286.92;1723318;81;20235;-44
2022/06/04 03:18:44;;;;;;;;;;;;;;;17.76;52.75;99292.61;1723687;82;20458;-44
2022/06/04 03:21:10;;;;;;;;;;;;;;;17.75;51.88;99284.25;1722272;82;20120;-50
2022/06/04 03:23:37;;;;;;;;;;;;;;;17.72;52.53;99281.39;1719536;82;20184;-56
2022/06/04 03:26:03;;;;;;;;;;;;;;;17.71;52.36;99282.34;1719792;82;20132;-54
2022/06/04 03:28:29;;;;;;;;;;;;;;;17.71;52.09;99281.52;1719870;82;20160;-51
2022/06/04 03:30:55;;;;;;;;;;;;;;;17.74;51.76;99283.42;1723723;82;20473;-47
2022/06/04 03:33:20;;;;;;;;;;;;;;;17.73;52.08;99280.39;1721207;83;20125;-54
2022/06/04 03:35:46;;;;;;;;;;;;;;;17.74;52.51;99286.58;1724623;82;20164;-54
2022/06/04 03:38:11;;;;;;;;;;;;;;;17.74;52.44;99288.74;1722920;82;20124;-52
2022/06/04 03:40:37;;;;;;;;;;;;;;;17.77;52.29;99294.27;1722621;83;20120;-46
2022/06/04 03:43:03;;;;;;;;;;;;;;;17.76;52.01;99292.11;1720440;83;20124;-46
2022/06/04 03:45:29;;;;;;;;;;;;;;;17.79;52.54;99284.34;1724315;83;20123;-49
2022/06/04 03:47:56;;;;;;;;;;;;;;;17.80;52.76;99287.38;1720569;82;20131;-47
2022/06/04 03:50:22;;;;;;;;;;;;;;;17.80;52.99;99284.22;1720868;83;20184;-53
2022/06/04 03:52:48;;;;;;;;;;;;;;;17.81;53.07;99285.08;1723487;82;20167;-46
2022/06/04 03:55:17;;;;;;;;;;;;;;;17.81;52.49;99280.59;1720886;82;20453;-48
2022/06/04 03:57:52;;;;;;;;;;;;;;;17.83;53.30;99278.64;1719124;82;20413;-43
2022/06/04 04:00:24;;;;;;;;;;;;;;;17.82;53.00;99275.62;1721632;82;20457;-49
2022/06/04 04:02:53;;;;;;;;;;;;;;;17.83;53.18;99272.00;1721788;82;20135;-49
2022/06/04 04:05:22;;;;;;;;;;;;;;;17.86;53.38;99268.74;1721972;82;20376;-51
2022/06/04 04:07:49;;;;;;;;;;;;;;;17.87;53.46;99265.95;1721949;82;20441;-49
2022/06/04 04:10:15;;;;;;;;;;;;;;;17.89;53.48;99269.81;1720386;83;20556;-43
2022/06/04 04:12:41;;;;;;;;;;;;;;;17.91;53.09;99268.70;1723311;82;20140;-51
2022/06/04 04:15:07;;;;;;;;;;;;;;;17.93;52.89;99265.91;1722787;82;20460;-50
2022/06/04 04:17:36;;;;;;;;;;;;;;;17.93;52.79;99262.75;1723524;82;20440;-47
2022/06/04 04:20:01;;;;;;;;;;;;;;;17.94;54.02;99260.95;1722418;82;20132;-47
2022/06/04 04:22:26;;;;;;;;;;;;;;;17.96;54.25;99265.66;1719326;82;20132;-49
2022/06/04 04:24:54;;;;;;;;;;;;;;;17.96;54.03;99256.34;1723212;82;20155;-51
2022/06/04 04:27:19;;;;;;;;;;;;;;;17.95;53.73;99260.80;1721677;82;20136;-50
2022/06/04 04:29:45;;;;;;;;;;;;;;;17.98;53.98;99260.55;1723519;83;20132;-50
2022/06/04 04:32:11;;;;;;;;;;;;;;;17.98;54.27;99257.88;1722570;83;20155;-53
2022/06/04 04:34:36;;;;;;;;;;;;;;;17.97;54.20;99258.88;1722550;82;20550;-44
2022/06/04 04:37:02;;;;;;;;;;;;;;;17.98;53.99;99259.21;1721936;82;20140;-43
2022/06/04 04:39:28;;;;;;;;;;;;;;;18.01;54.17;99262.11;1722007;82;20140;-51
2022/06/04 04:41:53;;;;;;;;;;;;;;;18.01;53.95;99264.77;1723032;82;20139;-47
2022/06/04 04:44:19;;;;;;;;;;;;;;;18.02;54.82;99267.77;1721811;82;20451;-49
2022/06/04 04:46:44;;;;;;;;;;;;;;;18.02;55.32;99271.77;1722623;82;20140;-45
2022/06/04 04:49:11;;;;;;;;;;;;;;;18.03;53.67;99272.13;1722343;83;20140;-50
2022/06/04 04:51:37;;;;;;;;;;;;;;;18.05;54.75;99266.69;1722885;82;20163;-50
2022/06/04 04:54:03;;;;;;;;;;;;;;;18.07;55.14;99263.39;1722049;82;20539;-50
2022/06/04 04:56:28;;;;;;;;;;;;;;;18.10;53.97;99268.43;1722278;83;20444;-47
2022/06/04 04:58:54;;;;;;;;;;;;;;;18.09;53.89;99260.95;1720281;82;20140;-43
2022/06/04 05:01:22;;;;;;;;;;;;;;;18.11;54.96;99272.79;1724422;82;20484;-48
2022/06/04 05:03:48;;;;;;;;;;;;;;;18.14;54.89;99268.54;1722509;82;20132;-52
2022/06/04 05:06:15;;;;;;;;;;;;;;;18.14;54.06;99264.55;1721031;83;20227;-50
2022/06/04 05:08:42;;;;;;;;;;;;;;;18.14;53.50;99270.70;1721890;82;20653;-51
2022/06/04 05:11:10;;;;;;;;;;;;;;;18.16;54.22;99273.23;1722573;82;20432;-44
2022/06/04 05:13:36;;;;;;;;;;;;;;;18.14;53.19;99279.19;1721881;83;20156;-52
2022/06/04 05:16:02;;;;;;;;;;;;;;;18.13;53.80;99276.99;1721366;83;20128;-50
2022/06/04 05:18:27;;;;;;;;;;;;;;;18.15;54.73;99281.69;1723762;82;20198;-49
2022/06/04 05:20:53;;;;;;;;;;;;;;;18.16;52.96;99286.05;1724986;82;20163;-45
2022/06/04 05:23:19;;;;;;;;;;;;;;;18.17;55.06;99278.90;1722112;82;20140;-57
2022/06/04 05:25:44;;;;;;;;;;;;;;;18.21;55.36;99281.67;1720953;83;20180;-45
2022/06/04 05:28:10;;;;;;;;;;;;;;;18.27;54.08;99278.95;1720951;83;20160;-45
2022/06/04 05:30:36;;;;;;;;;;;;;;;18.31;54.83;99282.53;1723815;82;20436;-44
2022/06/04 05:33:02;;;;;;;;;;;;;;;18.36;55.64;99283.47;1722968;83;20141;-56
2022/06/04 05:35:27;;;;;;;;;;;;;;;18.40;54.13;99289.70;1720215;83;20133;-46
2022/06/04 05:37:53;;;;;;;;;;;;;;;18.48;54.71;99288.19;1722818;83;20454;-47
2022/06/04 05:40:19;;;;;;;;;;;;;;;18.58;53.89;99289.07;1724466;82;20160;-46
2022/06/04 05:42:44;;;;;;;;;;;;;;;18.70;53.64;99290.65;1722656;81;20131;-50
2022/06/04 05:45:10;;;;;;;;;;;;;;;18.84;53.01;99292.59;1716877;82;20133;-53
2022/06/04 05:47:36;;;;;;;;;;;;;;;18.96;53.66;99289.66;1721437;82;20235;-52
2022/06/04 05:50:01;;;;;;;;;;;;;;;19.08;52.90;99297.05;1723961;82;20137;-52
2022/06/04 05:52:27;;;;;;;;;;;;;;;19.20;52.17;99304.91;1722732;82;20156;-54
2022/06/04 05:54:53;;;;;;;;;;;;;;;19.26;50.94;99306.50;1721630;82;20140;-49
2022/06/04 05:57:18;;;;;;;;;;;;;;;19.34;51.20;99305.83;1720721;83;20140;-50
2022/06/04 05:59:44;;;;;;;;;;;;;;;19.40;50.61;99306.58;1722481;82;20444;-43
2022/06/04 06:02:10;;;;;;;;;;;;;;;19.48;52.38;99305.41;1718176;82;20140;-54
2022/06/04 06:04:36;;;;;;;;;;;;;;;19.53;51.04;99313.80;1723641;82;20124;-44
2022/06/04 06:07:02;;;;;;;;;;;;;;;19.56;51.71;99309.52;1720937;83;20132;-54
2022/06/04 06:09:28;;;;;;;;;;;;;;;19.62;52.76;99312.61;1722362;83;20444;-48
2022/06/04 06:11:54;;;;;;;;;;;;;;;19.65;54.77;99309.67;1723784;82;20164;-54
2022/06/04 06:14:21;;;;;;;;;;;;;;;19.69;54.47;99314.55;1722803;82;20183;-46
2022/06/04 06:16:48;;;;;;;;;;;;;;;19.72;53.08;99318.78;1723407;82;20148;-52
2022/06/04 06:19:15;;;;;;;;;;;;;;;19.76;53.63;99317.53;1720836;82;20160;-41
2022/06/04 06:21:41;;;;;;;;;;;;;;;19.80;51.62;99318.92;1722336;82;20440;-52
2022/06/04 06:24:09;;;;;;;;;;;;;;;19.86;52.51;99322.34;1721628;83;20164;-52
2022/06/04 06:26:44;;;;;;;;;;;;;;;19.87;51.41;99320.03;1720512;82;20156;-51
2022/06/04 06:29:10;;;;;;;;;;;;;;;19.90;51.49;99321.09;1722424;82;20136;-48
2022/06/04 06:31:36;;;;;;;;;;;;;;;19.94;53.49;99325.66;1720241;83;20140;-45
2022/06/04 06:34:02;;;;;;;;;;;;;;;19.97;53.80;99329.34;1723759;82;20141;-45
2022/06/04 06:36:28;;;;;;;;;;;;;;;20.01;55.35;99331.23;1724150;83;20417;-50
2022/06/04 06:38:54;;;;;;;;;;;;;;;20.03;54.91;99329.25;1722514;82;20160;-49
2022/06/04 06:41:22;;;;;;;;;;;;;;;20.06;55.74;99324.97;1722022;83;20456;-46
2022/06/04 06:43:50;;;;;;;;;;;;;;;20.08;52.75;99331.87;1722900;83;20163;-43
2022/06/04 06:46:22;;;;;;;;;;;;;;;20.14;52.01;99334.45;1719989;83;20550;-54
2022/06/04 06:48:50;;;;;;;;;;;;;;;20.18;52.10;99341.17;1721873;81;20219;-47
2022/06/04 06:51:22;;;;;;;;;;;;;;;20.18;52.02;99343.02;1721915;82;20136;-46
2022/06/04 06:53:48;;;;;;;;;;;;;;;20.21;51.61;99342.23;1720955;82;20172;-45
2022/06/04 06:56:19;;;;;;;;;;;;;;;20.21;50.93;99338.22;1722250;82;20132;-42
2022/06/04 06:58:46;;;;;;;;;;;;;;;20.21;50.82;99341.36;1722887;83;20202;-46
2022/06/04 07:01:13;;;;;;;;;;;;;;;20.21;52.27;99346.23;1722019;81;20140;-52
2022/06/04 07:03:39;;;;;;;;;;;;;;;20.23;53.88;99346.06;1720047;82;20136;-42
2022/06/04 07:06:07;;;;;;;;;;;;;;;20.21;54.36;99346.23;1724779;83;20227;-52
2022/06/04 07:08:34;;;;;;;;;;;;;;;20.19;52.37;99344.17;1722065;82;20181;-45
2022/06/04 07:11:00;;;;;;;;;;;;;;;20.17;53.27;99338.14;1718976;82;20171;-48
2022/06/04 07:13:25;;;;;;;;;;;;;;;20.19;52.60;99341.50;1720933;82;20155;-47
2022/06/04 07:15:52;;;;;;;;;;;;;;;20.21;54.22;99335.55;1721738;83;20132;-49
2022/06/04 07:18:18;;;;;;;;;;;;;;;20.22;56.22;99329.71;1722505;82;20140;-50
2022/06/04 07:20:43;;;;;;;;;;;;;;;20.23;55.39;99326.90;1722810;81;20421;-48
2022/06/04 07:23:10;;;;;;;;;;;;;;;20.27;55.11;99336.30;1722211;82;20163;-48
2022/06/04 07:25:37;;;;;;;;;;;;;;;20.29;57.75;99334.31;1720801;83;20157;-52
2022/06/04 07:28:04;;;;;;;;;;;;;;;20.30;55.88;99337.34;1723724;82;20132;-50
2022/06/04 07:30:29;;;;;;;;;;;;;;;20.33;55.91;99345.05;1722811;83;20141;-52
2022/06/04 07:32:55;;;;;;;;;;;;;;;20.36;54.60;99347.10;1723878;82;20430;-52
2022/06/04 07:35:21;;;;;;;;;;;;;;;20.36;56.07;99348.44;1721728;82;20125;-51
2022/06/04 07:37:46;;;;;;;;;;;;;;;20.34;55.38;99352.58;1724262;82;20132;-54
2022/06/04 07:40:13;;;;;;;;;;;;;;;20.31;55.04;99357.70;1722277;83;20207;-53
2022/06/04 07:42:39;;;;;;;;;;;;;;;20.29;54.55;99358.85;1721413;82;20140;-48
2022/06/04 07:45:05;;;;;;;;;;;;;;;20.23;53.69;99364.28;1721987;83;20465;-46
2022/06/04 07:47:31;;;;;;;;;;;;;;;20.17;54.07;99362.67;1722494;82;20445;-47
2022/06/04 07:49:57;;;;;;;;;;;;;;;20.10;54.14;99361.06;1721111;82;20140;-45
2022/06/04 07:52:23;;;;;;;;;;;;;;;20.04;54.81;99367.82;1722139;83;20457;-50
2022/06/04 07:54:49;;;;;;;;;;;;;;;20.00;54.71;99365.60;1720821;82;20181;-43
2022/06/04 07:57:15;;;;;;;;;;;;;;;19.92;55.66;99369.83;1723201;82;20472;-51
2022/06/04 07:59:40;;;;;;;;;;;;;;;19.83;56.42;99372.02;1724819;82;20155;-50
2022/06/04 08:02:07;;;;;;;;;;;;;;;19.75;57.28;99363.87;1721186;83;20446;-44
2022/06/04 08:04:32;;;;;;;;;;;;;;;19.71;55.86;99361.94;1723587;82;20217;-50
2022/06/04 08:07:01;;;;;;;;;;;;;;;19.67;56.53;99367.22;1722954;82;20137;-44
2022/06/04 08:09:25;;;;;;;;;;;;;;;19.64;56.58;99365.32;1723236;82;20140;-53
2022/06/04 08:11:51;;;;;;;;;;;;;;;19.61;55.48;99370.46;1720911;83;20153;-55
2022/06/04 08:14:21;;;;;;;;;;;;;;;19.53;56.78;99376.47;1723220;83;20132;-49
2022/06/04 08:16:53;;;;;;;;;;;;;;;19.47;57.14;99380.21;1723343;83;20140;-45
2022/06/04 08:19:19;;;;;;;;;;;;;;;19.41;56.46;99376.28;1721430;83;20160;-51
2022/06/04 08:21:45;;;;;;;;;;;;;;;19.32;59.25;99384.62;1722010;82;20137;-47
2022/06/04 08:24:12;;;;;;;;;;;;;;;19.22;60.47;99385.09;1724624;82;20132;-48
2022/06/04 08:26:40;;;;;;;;;;;;;;;19.20;57.77;99395.05;1720177;82;20132;-49
2022/06/04 08:29:05;;;;;;;;;;;;;;;19.10;59.40;99384.37;1720690;83;20219;-53
2022/06/04 08:31:31;;;;;;;;;;;;;;;19.04;61.12;99384.91;1723208;82;20140;-52
2022/06/04 08:33:57;;;;;;;;;;;;;;;18.98;59.63;99384.13;1723036;81;20219;-47
2022/06/04 08:36:22;;;;;;;;;;;;;;;18.90;60.90;99381.29;1721193;82;20140;-45
2022/06/04 08:38:48;;;;;;;;;;;;;;;18.88;61.15;99380.59;1720190;83;20159;-48
2022/06/04 08:41:32;;;;;;;;;;;;;;;18.82;64.78;99374.48;1720857;82;20192;-53
2022/06/04 08:44:13;;;;;;;;;;;;;;;18.77;66.59;99374.38;1721076;82;20155;-48
2022/06/04 08:46:57;;;;;;;;;;;;;;;18.71;67.28;99382.88;1721825;82;20139;-44
2022/06/04 08:49:29;;;;;;;;;;;;;;;18.60;70.36;99380.33;1722050;82;20187;-47
2022/06/04 08:51:54;;;;;;;;;;;;;;;18.55;71.14;99379.88;1721652;82;20165;-51
2022/06/04 09:00:02;;;;;;;;;;;;;;;18.37;76.01;99383.18;1720887;82;20136;-53
2022/06/04 09:02:40;;;;;;;;;;;;;;;18.33;76.44;99375.58;1720632;83;20132;-50
2022/06/04 09:05:31;;;;;;;;;;;;;;;18.26;77.80;99373.92;1717627;82;20140;-48
2022/06/04 09:08:00;;;;;;;;;;;;;;;18.23;79.38;99376.37;1724411;82;20148;-52
2022/06/04 09:10:32;;;;;;;;;;;;;;;18.18;80.75;99375.08;1720461;82;20139;-51
2022/06/04 09:13:09;;;;;;;;;;;;;;;18.11;83.60;99380.57;1720116;82;20140;-48
2022/06/04 09:15:45;;;;;;;;;;;;;;;18.06;83.59;99376.95;1719454;82;20181;-47
2022/06/04 09:18:24;;;;;;;;;;;;;;;18.02;87.02;99384.36;1724061;82;20135;-52
2022/06/04 09:20:53;;;;;;;;;;;;;;;18.01;85.40;99384.52;1719632;82;20433;-53
2022/06/04 09:23:37;;;;;;;;;;;;;;;17.93;84.99;99389.13;1723528;82;20433;-47
2022/06/04 09:26:15;;;;;;;;;;;;;;;17.88;84.19;99387.34;1722542;82;20152;-54
2022/06/04 09:28:57;;;;;;;;;;;;;;;17.82;80.19;99390.49;1722018;82;20124;-53
2022/06/04 09:31:49;;;;;;;;;;;;;;;17.77;75.19;99398.87;1720219;82;20132;-50
2022/06/04 09:34:19;;;;;;;;;;;;;;;17.63;83.40;99396.02;1720151;82;20128;-47
2022/06/04 09:36:46;;;;;;;;;;;;;;;17.61;80.80;99399.80;1690984;82;20129;-50
2022/06/04 09:39:21;;;;;;;;;;;;;;;17.60;80.23;99398.92;1709943;82;20122;-47
2022/06/04 09:41:59;;;;;;;;;;;;;;;17.63;83.97;99397.34;1717075;83;20125;-55
2022/06/04 09:44:26;;;;;;;;;;;;;;;17.68;87.57;99394.78;1712372;83;20113;-48
2022/06/04 09:46:57;;;;;;;;;;;;;;;17.74;87.99;99390.30;1713775;82;20160;-47
2022/06/04 09:49:35;;;;;;;;;;;;;;;17.82;86.67;99381.18;1716843;83;20463;-53
2022/06/04 09:52:24;;;;;;;;;;;;;;;17.91;88.88;99382.26;1720857;82;20140;-56
2022/06/04 09:54:55;;;;;;;;;;;;;;;18.00;90.25;99386.80;1720424;82;20242;-51
2022/06/04 09:57:26;;;;;;;;;;;;;;;18.08;90.31;99382.15;1720990;83;20174;-48
2022/06/04 09:59:54;;;;;;;;;;;;;;;18.18;88.75;99383.06;1718179;83;20175;-48
2022/06/04 10:02:20;;;;;;;;;;;;;;;18.30;87.46;99386.02;1717061;82;20131;-51
2022/06/04 10:04:48;;;;;;;;;;;;;;;18.37;84.61;99378.32;1722759;81;20450;-47
2022/06/04 10:07:18;;;;;;;;;;;;;;;18.45;84.90;99373.69;1723322;82;20163;-46
2022/06/04 10:09:57;;;;;;;;;;;;;;;18.50;86.21;99376.77;1718637;83;20154;-48
2022/06/04 10:15:23;;;;;;;;;;;;;;;18.67;85.42;99369.48;1722486;82;20171;-46
2022/06/04 10:18:04;;;;;;;;;;;;;;;18.80;84.86;99372.75;1717943;82;20150;-51
2022/06/04 10:20:31;;;;;;;;;;;;;;;18.92;83.56;99376.70;1722826;82;20136;-45
2022/06/04 10:22:57;;;;;;;;;;;;;;;19.04;83.54;99374.74;1723121;82;20136;-47
2022/06/04 10:25:26;;;;;;;;;;;;;;;19.11;82.68;99374.55;1719598;81;20139;-52
2022/06/04 10:28:22;;;;;;;;;;;;;;;19.16;79.68;99373.16;1723405;82;20136;-49
2022/06/04 10:30:58;;;;;;;;;;;;;;;19.23;79.90;99365.45;1719817;82;20503;-48
2022/06/04 10:33:40;;;;;;;;;;;;;;;19.30;77.91;99356.39;1720275;83;20489;-49
2022/06/04 10:36:24;;;;;;;;;;;;;;;19.31;78.86;99348.76;1679658;83;20140;-51
2022/06/04 10:38:59;;;;;;;;;;;;;;;19.40;78.31;99348.42;1722668;82;20140;-47
2022/06/04 10:41:35;;;;;;;;;;;;;;;19.41;78.63;99342.95;1697733;83;20551;-46
2022/06/04 10:44:07;;;;;;;;;;;;;;;19.47;79.77;99346.37;1722711;83;20140;-50
2022/06/04 10:46:42;;;;;;;;;;;;;;;19.54;79.02;99353.33;1725083;82;20179;-53
2022/06/04 10:49:11;;;;;;;;;;;;;;;19.63;75.84;99359.16;1720811;82;20452;-49
2022/06/04 10:51:46;;;;;;;;;;;;;;;19.70;73.38;99363.41;1721465;81;20537;-46
2022/06/04 10:54:16;;;;;;;;;;;;;;;19.72;71.80;99365.47;1713981;83;20133;-45
2022/06/04 10:57:09;;;;;;;;;;;;;;;19.68;71.93;99364.05;1721711;82;20140;-49
2022/06/04 10:59:44;;;;;;;;;;;;;;;19.74;73.92;99359.53;1723557;81;20456;-49
2022/06/04 11:02:25;;;;;;;;;;;;;;;19.71;74.81;99361.94;1721985;82;20144;-51
2022/06/04 11:05:06;;;;;;;;;;;;;;;19.68;74.75;99365.38;1721127;82;20231;-46
2022/06/04 11:08:00;;;;;;;;;;;;;;;19.70;73.35;99358.94;1722262;83;20153;-46
2022/06/04 11:10:39;;;;;;;;;;;;;;;19.77;71.89;99356.56;1722707;82;20176;-52
2022/06/04 11:13:15;;;;;;;;;;;;;;;19.85;74.82;99355.37;1719745;82;20149;-47
2022/06/04 11:15:59;;;;;;;;;;;;;;;19.91;73.81;99356.12;1723597;82;20213;-50
2022/06/04 11:18:36;;;;;;;;;;;;;;;20.00;75.60;99354.42;1719668;82;20124;-48
2022/06/04 11:21:11;;;;;;;;;;;;;;;20.05;75.03;99354.00;1718944;82;20120;-54
2022/06/04 11:23:52;;;;;;;;;;;;;;;20.17;73.50;99362.17;1723595;82;20158;-52
2022/06/04 11:26:22;;;;;;;;;;;;;;;20.23;71.44;99370.09;1724698;82;20175;-50
2022/06/04 11:28:48;;;;;;;;;;;;;;;20.18;70.03;99377.72;1719700;82;20124;-48
2022/06/04 11:31:27;;;;;;;;;;;;;;;20.20;69.77;99373.91;1720994;82;20139;-59
2022/06/04 11:34:13;;;;;;;;;;;;;;;20.19;68.85;99376.22;1720525;82;20448;-48
2022/06/04 11:36:51;;;;;;;;;;;;;;;20.18;69.11;99375.88;1716618;82;20160;-54
2022/06/04 11:39:47;;;;;;;;;;;;;;;20.18;69.72;99372.38;1703513;83;20161;-49
2022/06/04 11:42:17;;;;;;;;;;;;;;;20.23;70.31;99368.76;1656800;85;20162;-51
2022/06/04 11:45:17;;;;;;;;;;;;;;;20.28;71.19;99377.18;1651933;87;20138;-44
2022/06/04 11:48:01;;;;;;;;;;;;;;;20.24;71.17;99374.46;1604157;89;20117;-49
2022/06/04 11:50:31;;;;;;;;;;;;;;;20.13;70.51;99373.63;1602331;88;20138;-48
2022/06/04 11:53:09;;;;;;;;;;;;;;;20.06;69.28;99371.69;1602405;88;20140;-49
2022/06/04 11:55:43;;;;;;;;;;;;;;;20.11;69.00;99364.09;1606387;88;20116;-51
2022/06/04 11:58:18;;;;;;;;;;;;;;;20.15;70.97;99370.82;1603740;88;20120;-49
2022/06/04 12:00:45;;;;;;;;;;;;;;;20.29;70.88;99362.36;1604014;88;20120;-51
2022/06/04 12:03:15;;;;;;;;;;;;;;;20.41;69.47;99367.52;1602927;89;20160;-54
2022/06/04 12:06:05;;;;;;;;;;;;;;;20.43;68.93;99366.39;1603649;88;20191;-50
2022/06/04 12:08:37;;;;;;;;;;;;;;;20.56;68.84;99367.91;1598082;88;20125;-48
2022/06/04 12:11:27;;;;;;;;;;;;;;;20.65;67.12;99367.87;1602041;89;20125;-50
2022/06/04 12:14:02;;;;;;;;;;;;;;;20.69;67.21;99371.93;1653162;85;20266;-45
2022/06/04 12:16:48;;;;;;;;;;;;;;;20.81;69.03;99367.72;1666589;85;20136;-46
2022/06/04 12:24:51;;;;;;;;;;;;;;;21.50;68.01;99358.78;1708957;83;20447;-46
2022/06/04 12:27:24;;;;;;;;;;;;;;;21.82;70.37;99364.92;1720807;82;20744;-49
2022/06/04 12:29:56;;;;;;;;;;;;;;;22.19;67.45;99366.03;1722834;82;20123;-53
2022/06/04 12:32:29;;;;;;;;;;;;;;;22.43;63.52;99368.03;1720474;82;20112;-46
2022/06/04 12:35:13;;;;;;;;;;;;;;;22.59;64.27;99362.41;1720339;82;20132;-48
2022/06/04 12:37:41;;;;;;;;;;;;;;;22.78;62.75;99358.14;1724821;82;20164;-49
2022/06/04 12:40:23;;;;;;;;;;;;;;;23.21;65.27;99351.41;1721336;82;20469;-48
2022/06/04 12:43:19;;;;;;;;;;;;;;;23.56;56.62;99358.85;1723980;82;20161;-48
2022/06/04 12:45:52;;;;;;;;;;;;;;;23.84;59.39;99355.34;1721544;82;20156;-50
2022/06/04 12:48:25;;;;;;;;;;;;;;;23.93;56.14;99355.67;1722870;82;20222;-46
2022/06/04 12:51:00;;;;;;;;;;;;;;;23.86;58.01;99360.55;1719079;82;20132;-51
2022/06/04 12:53:27;;;;;;;;;;;;;;;23.78;51.68;99358.69;1721773;82;20180;-46
2022/06/04 12:55:57;;;;;;;;;;;;;;;23.65;51.01;99351.62;1722492;83;20120;-45
2022/06/04 12:58:29;;;;;;;;;;;;;;;23.56;52.92;99349.45;1720946;82;20470;-46
2022/06/04 13:00:58;;;;;;;;;;;;;;;23.56;55.16;99352.14;1721382;82;20140;-42
2022/06/04 13:03:31;;;;;;;;;;;;;;;23.77;54.03;99348.42;1716317;83;20128;-43
2022/06/04 13:06:24;;;;;;;;;;;;;;;24.03;53.69;99345.25;1719085;82;20141;-49
2022/06/04 13:08:59;;;;;;;;;;;;;;;24.21;52.94;99339.16;1718685;83;20420;-49
2022/06/04 13:11:47;;;;;;;;;;;;;;;24.43;50.14;99340.30;1704945;82;20453;-45
2022/06/04 13:14:22;;;;;;;;;;;;;;;24.48;47.87;99336.56;1717313;83;20189;-47
2022/06/04 13:16:53;;;;;;;;;;;;;;;24.44;48.19;99339.27;1717515;83;20449;-46
2022/06/04 13:19:28;;;;;;;;;;;;;;;24.47;50.29;99340.80;1718266;82;20152;-47
2022/06/04 13:21:54;;;;;;;;;;;;;;;24.43;49.08;99342.12;1722755;82;20160;-50
2022/06/04 13:24:24;;;;;;;;;;;;;;;24.38;49.94;99336.46;1723579;82;20136;-46
2022/06/04 13:27:05;;;;;;;;;;;;;;;24.45;49.21;99339.62;1721174;82;20140;-46
2022/06/04 13:29:34;;;;;;;;;;;;;;;24.43;47.54;99333.58;1707813;83;20168;-52